sensor_id;sensor_type;location;lat;lon;timestamp;pressure;altitude;pressure_sealevel;temperature;humidity
69836;BME280;57132;51.972;4.450;2023-03-13T00:01:57;100039.88;;;8.17;100.00
69836;BME280;57132;51.972;4.450;2023-03-13T00:04:22;100027.66;;;8.14;100.00
69836;BME280;57132;51.972;4.450;2023-03-13T00:06:48;100024.78;;;8.18;100.00
69836;BME280;57132;51.972;4.450;2023-03-13T00:09:15;100013.91;;;8.21;100.00
69836;BME280;57132;51.972;4.450;2023-03-13T00:11:41;100021.66;;;8.24;100.00
69836;BME280;57132;51.972;4.450;2023-03-13T00:14:06;99999.44;;;8.25;100.00
69836;BME280;57132;51.972;4.450;2023-03-13T00:16:32;100007.06;;;8.29;100.00
69836;BME280;57132;51.972;4.450;2023-03-13T00:19:03;99978.44;;;8.33;100.00
69836;BME280;57132;51.972;4.450;2023-03-13T00:21:29;99988.09;;;8.34;100.00
69836;BME280;57132;51.972;4.450;2023-03-13T00:23:55;99968.50;;;8.35;100.00
69836;BME280;57132;51.972;4.450;2023-03-13T00:26:23;99983.31;;;8.39;100.00
69836;BME280;57132;51.972;4.450;2023-03-13T00:28:48;99966.16;;;8.43;100.00
69836;BME280;57132;51.972;4.450;2023-03-13T00:31:17;99954.44;;;8.46;100.00
69836;BME280;57132;51.972;4.450;2023-03-13T00:33:48;99950.81;;;8.47;100.00
69836;BME280;57132;51.972;4.450;2023-03-13T00:36:19;99935.69;;;8.47;100.00
69836;BME280;57132;51.972;4.450;2023-03-13T00:38:45;99934.00;;;8.46;100.00
69836;BME280;57132;51.972;4.450;2023-03-13T00:41:13;99947.09;;;8.49;100.00
69836;BME280;57132;51.972;4.450;2023-03-13T00:43:40;99926.28;;;8.54;100.00
69836;BME280;57132;51.972;4.450;2023-03-13T00:46:06;99911.31;;;8.53;100.00
69836;BME280;57132;51.972;4.450;2023-03-13T00:48:33;99906.00;;;8.53;100.00
69836;BME280;57132;51.972;4.450;2023-03-13T00:50:59;99912.63;;;8.59;100.00
69836;BME280;57132;51.972;4.450;2023-03-13T00:53:24;99914.34;;;8.60;100.00
69836;BME280;57132;51.972;4.450;2023-03-13T00:58:16;99887.63;;;8.61;100.00
69836;BME280;57132;51.972;4.450;2023-03-13T01:00:41;99874.19;;;8.63;100.00
69836;BME280;57132;51.972;4.450;2023-03-13T01:03:07;99882.06;;;8.65;100.00
69836;BME280;57132;51.972;4.450;2023-03-13T01:05:32;99873.72;;;8.69;100.00
69836;BME280;57132;51.972;4.450;2023-03-13T01:07:57;99872.38;;;8.75;100.00
69836;BME280;57132;51.972;4.450;2023-03-13T01:10:23;99847.50;;;8.76;100.00
69836;BME280;57132;51.972;4.450;2023-03-13T01:12:49;99863.19;;;8.79;100.00
69836;BME280;57132;51.972;4.450;2023-03-13T01:15:14;99851.47;;;8.81;100.00
69836;BME280;57132;51.972;4.450;2023-03-13T01:17:42;99848.44;;;8.86;100.00
69836;BME280;57132;51.972;4.450;2023-03-13T01:20:08;99833.91;;;8.90;100.00
69836;BME280;57132;51.972;4.450;2023-03-13T01:22:34;99826.53;;;8.94;100.00
69836;BME280;57132;51.972;4.450;2023-03-13T01:24:59;99840.44;;;8.97;100.00
69836;BME280;57132;51.972;4.450;2023-03-13T01:27:24;99822.41;;;9.01;100.00
69836;BME280;57132;51.972;4.450;2023-03-13T01:29:49;99822.78;;;9.07;100.00
69836;BME280;57132;51.972;4.450;2023-03-13T01:32:15;99818.75;;;9.13;100.00
69836;BME280;57132;51.972;4.450;2023-03-13T01:34:40;99815.84;;;9.16;100.00
69836;BME280;57132;51.972;4.450;2023-03-13T01:37:05;99803.53;;;9.15;100.00
69836;BME280;57132;51.972;4.450;2023-03-13T01:39:31;99789.38;;;9.15;100.00
69836;BME280;57132;51.972;4.450;2023-03-13T01:41:56;99797.81;;;9.20;100.00
69836;BME280;57132;51.972;4.450;2023-03-13T01:44:24;99791.50;;;9.21;100.00
69836;BME280;57132;51.972;4.450;2023-03-13T01:46:50;99800.25;;;9.23;100.00
69836;BME280;57132;51.972;4.450;2023-03-13T01:54:19;99764.41;;;9.27;100.00
69836;BME280;57132;51.972;4.450;2023-03-13T01:56:52;99741.72;;;9.32;100.00
69836;BME280;57132;51.972;4.450;2023-03-13T01:59:41;99748.50;;;9.36;100.00
69836;BME280;57132;51.972;4.450;2023-03-13T02:02:08;99759.59;;;9.42;100.00
69836;BME280;57132;51.972;4.450;2023-03-13T02:04:39;99744.22;;;9.45;100.00
69836;BME280;57132;51.972;4.450;2023-03-13T02:07:09;99737.41;;;9.52;100.00
69836;BME280;57132;51.972;4.450;2023-03-13T02:09:38;99725.06;;;9.51;100.00
69836;BME280;57132;51.972;4.450;2023-03-13T02:14:34;99757.28;;;9.69;100.00
69836;BME280;57132;51.972;4.450;2023-03-13T02:17:02;99735.56;;;9.74;100.00
69836;BME280;57132;51.972;4.450;2023-03-13T02:19:32;99726.22;;;9.79;100.00
69836;BME280;57132;51.972;4.450;2023-03-13T02:24:40;99763.47;;;9.91;100.00
69836;BME280;57132;51.972;4.450;2023-03-13T02:27:11;99731.09;;;9.95;100.00
69836;BME280;57132;51.972;4.450;2023-03-13T02:29:36;99706.94;;;9.97;100.00
69836;BME280;57132;51.972;4.450;2023-03-13T02:32:02;99721.84;;;9.99;100.00
69836;BME280;57132;51.972;4.450;2023-03-13T02:34:31;99729.31;;;10.05;100.00
69836;BME280;57132;51.972;4.450;2023-03-13T02:36:58;99731.84;;;10.07;100.00
69836;BME280;57132;51.972;4.450;2023-03-13T02:39:24;99726.97;;;10.12;100.00
69836;BME280;57132;51.972;4.450;2023-03-13T02:41:51;99723.63;;;10.20;100.00
69836;BME280;57132;51.972;4.450;2023-03-13T02:44:18;99708.56;;;10.30;100.00
69836;BME280;57132;51.972;4.450;2023-03-13T02:46:50;99726.03;;;10.23;100.00
69836;BME280;57132;51.972;4.450;2023-03-13T02:49:22;99731.00;;;10.27;100.00
69836;BME280;57132;51.972;4.450;2023-03-13T02:51:48;99704.19;;;10.29;100.00
69836;BME280;57132;51.972;4.450;2023-03-13T02:54:21;99742.09;;;10.32;100.00
69836;BME280;57132;51.972;4.450;2023-03-13T02:56:51;99738.19;;;10.37;100.00
69836;BME280;57132;51.972;4.450;2023-03-13T02:59:17;99710.72;;;10.46;100.00
69836;BME280;57132;51.972;4.450;2023-03-13T03:01:43;99700.75;;;10.48;100.00
69836;BME280;57132;51.972;4.450;2023-03-13T03:04:08;99681.78;;;10.51;100.00
69836;BME280;57132;51.972;4.450;2023-03-13T03:06:33;99722.41;;;10.54;100.00
69836;BME280;57132;51.972;4.450;2023-03-13T03:08:59;99721.84;;;10.61;100.00
69836;BME280;57132;51.972;4.450;2023-03-13T03:11:24;99712.31;;;10.68;100.00
69836;BME280;57132;51.972;4.450;2023-03-13T03:13:49;99727.22;;;10.70;100.00
69836;BME280;57132;51.972;4.450;2023-03-13T03:16:15;99682.69;;;10.71;100.00
69836;BME280;57132;51.972;4.450;2023-03-13T03:18:43;99679.59;;;10.75;100.00
69836;BME280;57132;51.972;4.450;2023-03-13T03:21:08;99672.56;;;10.74;100.00
69836;BME280;57132;51.972;4.450;2023-03-13T03:23:34;99695.03;;;10.72;100.00
69836;BME280;57132;51.972;4.450;2023-03-13T03:26:01;99680.00;;;10.71;100.00
69836;BME280;57132;51.972;4.450;2023-03-13T03:28:28;99694.47;;;10.68;100.00
69836;BME280;57132;51.972;4.450;2023-03-13T03:30:54;99683.66;;;10.70;100.00
69836;BME280;57132;51.972;4.450;2023-03-13T03:33:21;99672.84;;;10.71;100.00
69836;BME280;57132;51.972;4.450;2023-03-13T03:35:46;99677.63;;;10.68;100.00
69836;BME280;57132;51.972;4.450;2023-03-13T03:38:12;99689.44;;;10.65;100.00
69836;BME280;57132;51.972;4.450;2023-03-13T03:40:37;99677.47;;;10.59;100.00
69836;BME280;57132;51.972;4.450;2023-03-13T03:43:02;99690.97;;;10.68;100.00
69836;BME280;57132;51.972;4.450;2023-03-13T03:45:28;99686.03;;;10.63;100.00
69836;BME280;57132;51.972;4.450;2023-03-13T03:47:53;99671.97;;;10.61;100.00
69836;BME280;57132;51.972;4.450;2023-03-13T03:50:19;99648.69;;;10.63;100.00
69836;BME280;57132;51.972;4.450;2023-03-13T03:52:44;99656.25;;;10.58;100.00
69836;BME280;57132;51.972;4.450;2023-03-13T03:55:09;99668.47;;;10.61;100.00
69836;BME280;57132;51.972;4.450;2023-03-13T03:57:35;99649.63;;;10.52;100.00
69836;BME280;57132;51.972;4.450;2023-03-13T04:00:00;99649.94;;;10.59;100.00
69836;BME280;57132;51.972;4.450;2023-03-13T04:02:26;99634.75;;;10.59;100.00
69836;BME280;57132;51.972;4.450;2023-03-13T04:04:51;99638.53;;;10.57;100.00
69836;BME280;57132;51.972;4.450;2023-03-13T04:07:16;99652.75;;;10.57;100.00
69836;BME280;57132;51.972;4.450;2023-03-13T04:09:42;99639.25;;;10.59;100.00
69836;BME280;57132;51.972;4.450;2023-03-13T04:12:07;99649.66;;;10.62;100.00
69836;BME280;57132;51.972;4.450;2023-03-13T04:14:33;99631.25;;;10.59;100.00
69836;BME280;57132;51.972;4.450;2023-03-13T04:16:58;99644.91;;;10.66;100.00
69836;BME280;57132;51.972;4.450;2023-03-13T04:19:23;99647.84;;;10.63;100.00
69836;BME280;57132;51.972;4.450;2023-03-13T04:21:49;99644.75;;;10.57;100.00
69836;BME280;57132;51.972;4.450;2023-03-13T04:24:14;99641.09;;;10.68;100.00
69836;BME280;57132;51.972;4.450;2023-03-13T04:26:39;99636.59;;;10.59;100.00
69836;BME280;57132;51.972;4.450;2023-03-13T04:29:05;99644.44;;;10.61;100.00
69836;BME280;57132;51.972;4.450;2023-03-13T04:31:31;99632.81;;;10.62;100.00
69836;BME280;57132;51.972;4.450;2023-03-13T04:33:57;99625.66;;;10.62;100.00
69836;BME280;57132;51.972;4.450;2023-03-13T04:36:22;99631.56;;;10.66;100.00
69836;BME280;57132;51.972;4.450;2023-03-13T04:38:48;99636.19;;;10.64;100.00
69836;BME280;57132;51.972;4.450;2023-03-13T04:41:13;99611.16;;;10.65;100.00
69836;BME280;57132;51.972;4.450;2023-03-13T04:43:38;99615.13;;;10.70;100.00
69836;BME280;57132;51.972;4.450;2023-03-13T04:46:04;99617.63;;;10.72;100.00
69836;BME280;57132;51.972;4.450;2023-03-13T04:48:29;99602.03;;;10.77;100.00
69836;BME280;57132;51.972;4.450;2023-03-13T04:50:54;99596.44;;;10.90;100.00
69836;BME280;57132;51.972;4.450;2023-03-13T04:53:20;99632.41;;;10.95;100.00
69836;BME280;57132;51.972;4.450;2023-03-13T04:55:46;99595.75;;;10.97;100.00
69836;BME280;57132;51.972;4.450;2023-03-13T04:58:12;99614.97;;;11.11;100.00
69836;BME280;57132;51.972;4.450;2023-03-13T05:00:39;99614.09;;;11.20;100.00
69836;BME280;57132;51.972;4.450;2023-03-13T05:03:05;99581.50;;;11.26;100.00
69836;BME280;57132;51.972;4.450;2023-03-13T05:05:32;99613.81;;;11.23;100.00
69836;BME280;57132;51.972;4.450;2023-03-13T05:07:58;99621.16;;;11.21;100.00
69836;BME280;57132;51.972;4.450;2023-03-13T05:10:23;99561.41;;;11.22;100.00
69836;BME280;57132;51.972;4.450;2023-03-13T05:12:48;99547.66;;;11.17;100.00
69836;BME280;57132;51.972;4.450;2023-03-13T05:15:14;99569.81;;;11.27;100.00
69836;BME280;57132;51.972;4.450;2023-03-13T05:17:39;99536.47;;;11.41;100.00
69836;BME280;57132;51.972;4.450;2023-03-13T05:20:05;99521.41;;;11.40;100.00
69836;BME280;57132;51.972;4.450;2023-03-13T05:22:34;99539.25;;;11.49;100.00
69836;BME280;57132;51.972;4.450;2023-03-13T05:24:59;99547.66;;;11.54;100.00
69836;BME280;57132;51.972;4.450;2023-03-13T05:27:24;99540.03;;;11.59;100.00
69836;BME280;57132;51.972;4.450;2023-03-13T05:29:50;99585.59;;;11.67;100.00
69836;BME280;57132;51.972;4.450;2023-03-13T05:32:15;99594.03;;;11.72;100.00
69836;BME280;57132;51.972;4.450;2023-03-13T05:34:41;99540.00;;;11.69;100.00
69836;BME280;57132;51.972;4.450;2023-03-13T05:37:06;99552.09;;;11.73;100.00
69836;BME280;57132;51.972;4.450;2023-03-13T05:39:31;99531.25;;;11.76;100.00
69836;BME280;57132;51.972;4.450;2023-03-13T05:41:56;99611.59;;;11.75;100.00
69836;BME280;57132;51.972;4.450;2023-03-13T05:44:22;99545.84;;;11.82;100.00
69836;BME280;57132;51.972;4.450;2023-03-13T05:46:47;99539.69;;;11.72;100.00
69836;BME280;57132;51.972;4.450;2023-03-13T05:49:13;99558.81;;;11.77;100.00
69836;BME280;57132;51.972;4.450;2023-03-13T05:51:38;99531.09;;;11.78;100.00
69836;BME280;57132;51.972;4.450;2023-03-13T05:54:03;99527.19;;;11.72;100.00
69836;BME280;57132;51.972;4.450;2023-03-13T05:56:29;99564.84;;;11.79;100.00
69836;BME280;57132;51.972;4.450;2023-03-13T05:58:54;99535.63;;;11.68;100.00
69836;BME280;57132;51.972;4.450;2023-03-13T06:01:20;99534.50;;;11.70;100.00
69836;BME280;57132;51.972;4.450;2023-03-13T06:03:45;99537.34;;;11.69;100.00
69836;BME280;57132;51.972;4.450;2023-03-13T06:06:10;99564.63;;;11.72;100.00
69836;BME280;57132;51.972;4.450;2023-03-13T06:08:35;99539.31;;;11.67;100.00
69836;BME280;57132;51.972;4.450;2023-03-13T06:11:01;99567.88;;;11.66;100.00
69836;BME280;57132;51.972;4.450;2023-03-13T06:13:27;99552.63;;;11.49;100.00
69836;BME280;57132;51.972;4.450;2023-03-13T06:15:55;99586.53;;;11.39;100.00
69836;BME280;57132;51.972;4.450;2023-03-13T06:18:21;99559.28;;;11.16;100.00
69836;BME280;57132;51.972;4.450;2023-03-13T06:20:48;99561.03;;;10.97;100.00
69836;BME280;57132;51.972;4.450;2023-03-13T06:23:13;99519.72;;;10.82;100.00
69836;BME280;57132;51.972;4.450;2023-03-13T06:25:38;99547.56;;;10.70;100.00
69836;BME280;57132;51.972;4.450;2023-03-13T06:28:04;99568.47;;;10.65;100.00
69836;BME280;57132;51.972;4.450;2023-03-13T06:30:30;99533.94;;;10.63;100.00
69836;BME280;57132;51.972;4.450;2023-03-13T06:32:57;99530.00;;;10.57;100.00
69836;BME280;57132;51.972;4.450;2023-03-13T06:35:22;99554.31;;;10.54;100.00
69836;BME280;57132;51.972;4.450;2023-03-13T06:37:48;99544.31;;;10.47;100.00
69836;BME280;57132;51.972;4.450;2023-03-13T06:40:13;99554.44;;;10.43;100.00
69836;BME280;57132;51.972;4.450;2023-03-13T06:42:38;99554.00;;;10.38;100.00
69836;BME280;57132;51.972;4.450;2023-03-13T06:45:04;99540.78;;;10.37;100.00
69836;BME280;57132;51.972;4.450;2023-03-13T06:47:30;99537.03;;;10.39;100.00
69836;BME280;57132;51.972;4.450;2023-03-13T06:49:56;99528.88;;;10.41;100.00
69836;BME280;57132;51.972;4.450;2023-03-13T06:52:22;99553.44;;;10.44;100.00
69836;BME280;57132;51.972;4.450;2023-03-13T06:54:47;99553.16;;;10.47;100.00
69836;BME280;57132;51.972;4.450;2023-03-13T06:57:13;99533.38;;;10.50;100.00
69836;BME280;57132;51.972;4.450;2023-03-13T06:59:38;99528.47;;;10.55;100.00
69836;BME280;57132;51.972;4.450;2023-03-13T07:02:04;99547.97;;;10.55;100.00
69836;BME280;57132;51.972;4.450;2023-03-13T07:04:29;99556.25;;;10.52;100.00
69836;BME280;57132;51.972;4.450;2023-03-13T07:06:54;99544.47;;;10.45;100.00
69836;BME280;57132;51.972;4.450;2023-03-13T07:09:20;99528.47;;;10.45;100.00
69836;BME280;57132;51.972;4.450;2023-03-13T07:11:45;99523.56;;;10.50;100.00
69836;BME280;57132;51.972;4.450;2023-03-13T07:14:11;99537.72;;;10.51;100.00
69836;BME280;57132;51.972;4.450;2023-03-13T07:16:37;99546.84;;;10.48;100.00
69836;BME280;57132;51.972;4.450;2023-03-13T07:19:02;99526.22;;;10.50;100.00
69836;BME280;57132;51.972;4.450;2023-03-13T07:21:27;99552.63;;;10.53;100.00
69836;BME280;57132;51.972;4.450;2023-03-13T07:23:53;99559.50;;;10.56;100.00
69836;BME280;57132;51.972;4.450;2023-03-13T07:26:18;99561.03;;;10.58;100.00
69836;BME280;57132;51.972;4.450;2023-03-13T07:28:44;99557.09;;;10.63;100.00
69836;BME280;57132;51.972;4.450;2023-03-13T07:31:12;99539.69;;;10.68;100.00
69836;BME280;57132;51.972;4.450;2023-03-13T07:33:38;99550.63;;;10.75;100.00
69836;BME280;57132;51.972;4.450;2023-03-13T07:36:04;99556.53;;;10.78;100.00
69836;BME280;57132;51.972;4.450;2023-03-13T07:38:29;99551.19;;;10.88;100.00
69836;BME280;57132;51.972;4.450;2023-03-13T07:40:56;99567.75;;;10.92;100.00
69836;BME280;57132;51.972;4.450;2023-03-13T07:43:23;99531.78;;;10.96;100.00
69836;BME280;57132;51.972;4.450;2023-03-13T07:46:00;99548.09;;;11.02;100.00
69836;BME280;57132;51.972;4.450;2023-03-13T07:48:31;99519.41;;;11.04;100.00
69836;BME280;57132;51.972;4.450;2023-03-13T07:50:57;99507.03;;;11.03;100.00
69836;BME280;57132;51.972;4.450;2023-03-13T07:53:23;99528.94;;;11.17;100.00
69836;BME280;57132;51.972;4.450;2023-03-13T07:55:59;99558.97;;;11.38;100.00
69836;BME280;57132;51.972;4.450;2023-03-13T07:58:29;99537.41;;;11.49;100.00
69836;BME280;57132;51.972;4.450;2023-03-13T08:00:55;99536.41;;;11.50;100.00
69836;BME280;57132;51.972;4.450;2023-03-13T08:03:22;99514.84;;;11.62;100.00
69836;BME280;57132;51.972;4.450;2023-03-13T08:05:56;99516.81;;;11.60;100.00
69836;BME280;57132;51.972;4.450;2023-03-13T08:08:22;99544.03;;;11.45;100.00
69836;BME280;57132;51.972;4.450;2023-03-13T08:10:47;99568.66;;;11.39;100.00
69836;BME280;57132;51.972;4.450;2023-03-13T08:13:13;99520.84;;;11.36;100.00
69836;BME280;57132;51.972;4.450;2023-03-13T08:15:39;99528.28;;;11.42;100.00
69836;BME280;57132;51.972;4.450;2023-03-13T08:18:04;99500.69;;;11.51;100.00
69836;BME280;57132;51.972;4.450;2023-03-13T08:20:30;99552.16;;;11.53;100.00
69836;BME280;57132;51.972;4.450;2023-03-13T08:22:56;99537.53;;;11.57;100.00
69836;BME280;57132;51.972;4.450;2023-03-13T08:25:21;99555.50;;;11.65;100.00
69836;BME280;57132;51.972;4.450;2023-03-13T08:27:47;99552.53;;;11.68;100.00
69836;BME280;57132;51.972;4.450;2023-03-13T08:30:12;99543.47;;;11.79;100.00
69836;BME280;57132;51.972;4.450;2023-03-13T08:32:38;99526.34;;;11.99;100.00
69836;BME280;57132;51.972;4.450;2023-03-13T08:35:03;99517.53;;;12.17;100.00
69836;BME280;57132;51.972;4.450;2023-03-13T08:37:29;99494.53;;;12.24;100.00
69836;BME280;57132;51.972;4.450;2023-03-13T08:39:54;99503.53;;;12.23;100.00
69836;BME280;57132;51.972;4.450;2023-03-13T08:42:21;99569.66;;;12.30;100.00
69836;BME280;57132;51.972;4.450;2023-03-13T08:44:47;99514.56;;;12.38;100.00
69836;BME280;57132;51.972;4.450;2023-03-13T08:47:12;99532.81;;;12.42;100.00
69836;BME280;57132;51.972;4.450;2023-03-13T08:49:38;99525.72;;;12.51;100.00
69836;BME280;57132;51.972;4.450;2023-03-13T08:52:04;99480.50;;;12.66;100.00
69836;BME280;57132;51.972;4.450;2023-03-13T08:54:30;99547.03;;;12.78;100.00
69836;BME280;57132;51.972;4.450;2023-03-13T08:56:56;99521.19;;;12.69;100.00
69836;BME280;57132;51.972;4.450;2023-03-13T08:59:21;99480.91;;;12.53;100.00
69836;BME280;57132;51.972;4.450;2023-03-13T09:01:46;99471.28;;;12.60;100.00
69836;BME280;57132;51.972;4.450;2023-03-13T09:04:12;99475.78;;;12.60;100.00
69836;BME280;57132;51.972;4.450;2023-03-13T09:06:37;99484.66;;;12.60;100.00
69836;BME280;57132;51.972;4.450;2023-03-13T09:09:04;99452.84;;;12.57;100.00
69836;BME280;57132;51.972;4.450;2023-03-13T09:11:31;99462.34;;;12.77;100.00
69836;BME280;57132;51.972;4.450;2023-03-13T09:13:57;99462.44;;;13.46;100.00
69836;BME280;57132;51.972;4.450;2023-03-13T09:16:26;99450.25;;;13.51;100.00
69836;BME280;57132;51.972;4.450;2023-03-13T09:18:52;99481.69;;;13.41;100.00
69836;BME280;57132;51.972;4.450;2023-03-13T09:21:23;99455.94;;;13.22;100.00
69836;BME280;57132;51.972;4.450;2023-03-13T09:23:49;99456.69;;;13.33;100.00
69836;BME280;57132;51.972;4.450;2023-03-13T09:26:16;99467.41;;;13.33;100.00
69836;BME280;57132;51.972;4.450;2023-03-13T09:28:42;99427.94;;;14.10;100.00
69836;BME280;57132;51.972;4.450;2023-03-13T09:31:11;99465.19;;;15.11;100.00
69836;BME280;57132;51.972;4.450;2023-03-13T09:33:38;99440.50;;;15.55;100.00
69836;BME280;57132;51.972;4.450;2023-03-13T09:36:04;99412.25;;;15.11;100.00
69836;BME280;57132;51.972;4.450;2023-03-13T09:38:31;99437.47;;;13.96;100.00
69836;BME280;57132;51.972;4.450;2023-03-13T09:41:02;99398.13;;;13.54;100.00
69836;BME280;57132;51.972;4.450;2023-03-13T09:43:51;99427.56;;;13.38;100.00
69836;BME280;57132;51.972;4.450;2023-03-13T09:46:24;99397.22;;;13.29;100.00
69836;BME280;57132;51.972;4.450;2023-03-13T09:49:03;99414.38;;;14.19;100.00
69836;BME280;57132;51.972;4.450;2023-03-13T09:51:34;99465.22;;;14.45;100.00
69836;BME280;57132;51.972;4.450;2023-03-13T09:56:38;99398.06;;;14.29;100.00
69836;BME280;57132;51.972;4.450;2023-03-13T10:01:54;99384.00;;;14.43;100.00
69836;BME280;57132;51.972;4.450;2023-03-13T10:04:29;99374.59;;;13.90;100.00
69836;BME280;57132;51.972;4.450;2023-03-13T10:06:56;99386.78;;;13.68;100.00
69836;BME280;57132;51.972;4.450;2023-03-13T10:09:32;99434.94;;;13.78;100.00
69836;BME280;57132;51.972;4.450;2023-03-13T10:19:59;99431.72;;;13.66;100.00
69836;BME280;57132;51.972;4.450;2023-03-13T10:22:27;99430.56;;;13.77;100.00
69836;BME280;57132;51.972;4.450;2023-03-13T10:24:57;99421.06;;;14.07;100.00
69836;BME280;57132;51.972;4.450;2023-03-13T10:27:23;99388.72;;;14.49;99.60
69836;BME280;57132;51.972;4.450;2023-03-13T10:29:49;99403.63;;;14.27;99.03
69836;BME280;57132;51.972;4.450;2023-03-13T10:32:16;99399.88;;;13.71;100.00
69836;BME280;57132;51.972;4.450;2023-03-13T10:34:58;99405.81;;;13.41;100.00
69836;BME280;57132;51.972;4.450;2023-03-13T10:37:40;99387.88;;;13.41;100.00
69836;BME280;57132;51.972;4.450;2023-03-13T10:40:18;99395.16;;;13.65;100.00
69836;BME280;57132;51.972;4.450;2023-03-13T10:42:46;99389.78;;;15.04;100.00
69836;BME280;57132;51.972;4.450;2023-03-13T10:45:17;99396.41;;;14.85;97.64
69836;BME280;57132;51.972;4.450;2023-03-13T10:47:44;99365.66;;;14.80;98.11
69836;BME280;57132;51.972;4.450;2023-03-13T10:50:19;99371.59;;;15.14;94.64
69836;BME280;57132;51.972;4.450;2023-03-13T10:52:47;99356.84;;;15.10;93.69
69836;BME280;57132;51.972;4.450;2023-03-13T10:55:24;99421.06;;;14.48;91.47
69836;BME280;57132;51.972;4.450;2023-03-13T10:58:03;99339.88;;;14.54;94.21
69836;BME280;57132;51.972;4.450;2023-03-13T11:00:37;99390.88;;;14.70;89.62
69836;BME280;57132;51.972;4.450;2023-03-13T11:03:12;99373.63;;;15.12;90.07
69836;BME280;57132;51.972;4.450;2023-03-13T11:05:41;99380.22;;;15.02;88.52
69836;BME280;57132;51.972;4.450;2023-03-13T11:08:23;99360.59;;;15.63;86.66
69836;BME280;57132;51.972;4.450;2023-03-13T11:10:56;99372.28;;;15.47;86.81
69836;BME280;57132;51.972;4.450;2023-03-13T11:15:58;99466.72;;;14.40;90.53
69836;BME280;57132;51.972;4.450;2023-03-13T11:18:37;99396.09;;;15.19;90.06
69836;BME280;57132;51.972;4.450;2023-03-13T11:21:05;99375.78;;;15.25;87.15
69836;BME280;57132;51.972;4.450;2023-03-13T11:23:36;99381.50;;;15.22;83.95
69836;BME280;57132;51.972;4.450;2023-03-13T11:28:57;99391.03;;;14.85;80.72
69836;BME280;57132;51.972;4.450;2023-03-13T11:31:31;99369.44;;;15.49;81.07
69836;BME280;57132;51.972;4.450;2023-03-13T11:34:20;99445.41;;;15.43;77.90
69836;BME280;57132;51.972;4.450;2023-03-13T11:50:45;99372.09;;;15.57;78.81
69836;BME280;57132;51.972;4.450;2023-03-13T11:53:39;99358.84;;;16.25;75.11
69836;BME280;57132;51.972;4.450;2023-03-13T11:57:02;99385.22;;;15.52;78.92
69836;BME280;57132;51.972;4.450;2023-03-13T11:59:21;99370.94;;;15.20;81.25
69836;BME280;57132;51.972;4.450;2023-03-13T12:01:54;99363.69;;;14.41;84.16
69836;BME280;57132;51.972;4.450;2023-03-13T12:04:29;99370.91;;;14.57;88.69
69836;BME280;57132;51.972;4.450;2023-03-13T12:09:33;99359.84;;;14.51;89.01
69836;BME280;57132;51.972;4.450;2023-03-13T12:14:53;99360.47;;;14.78;89.97
69836;BME280;57132;51.972;4.450;2023-03-13T12:17:30;99386.84;;;14.01;88.74
69836;BME280;57132;51.972;4.450;2023-03-13T12:20:05;99374.25;;;14.01;93.58
69836;BME280;57132;51.972;4.450;2023-03-13T12:22:57;99373.56;;;14.48;91.84
69836;BME280;57132;51.972;4.450;2023-03-13T12:25:32;99354.59;;;15.22;88.78
69836;BME280;57132;51.972;4.450;2023-03-13T12:34:00;99373.28;;;15.15;84.66
69836;BME280;57132;51.972;4.450;2023-03-13T12:36:53;99351.41;;;15.27;86.89
69836;BME280;57132;51.972;4.450;2023-03-13T12:39:44;99373.44;;;14.58;87.23
69836;BME280;57132;51.972;4.450;2023-03-13T12:42:39;99359.16;;;14.66;87.69
69836;BME280;57132;51.972;4.450;2023-03-13T12:45:09;99338.69;;;14.57;87.07
69836;BME280;57132;51.972;4.450;2023-03-13T12:48:21;99346.72;;;14.48;88.67
69836;BME280;57132;51.972;4.450;2023-03-13T12:58:57;99340.13;;;14.84;83.87
69836;BME280;57132;51.972;4.450;2023-03-13T13:01:35;99329.78;;;14.48;80.14
69836;BME280;57132;51.972;4.450;2023-03-13T13:04:21;99305.13;;;14.36;81.53
69836;BME280;57132;51.972;4.450;2023-03-13T13:09:31;99340.22;;;14.26;80.01
69836;BME280;57132;51.972;4.450;2023-03-13T13:12:17;99303.66;;;14.25;83.04
69836;BME280;57132;51.972;4.450;2023-03-13T13:17:16;99290.03;;;14.43;84.90
69836;BME280;57132;51.972;4.450;2023-03-13T13:19:46;99302.16;;;14.23;82.99
69836;BME280;57132;51.972;4.450;2023-03-13T13:32:52;99310.16;;;13.41;88.42
69836;BME280;57132;51.972;4.450;2023-03-13T13:35:33;99313.91;;;14.06;88.05
69836;BME280;57132;51.972;4.450;2023-03-13T13:46:29;99308.53;;;13.73;82.88
69836;BME280;57132;51.972;4.450;2023-03-13T13:56:57;99245.00;;;13.65;81.44
69836;BME280;57132;51.972;4.450;2023-03-13T13:59:38;99262.78;;;13.66;81.97
69836;BME280;57132;51.972;4.450;2023-03-13T14:04:41;99225.91;;;13.44;82.72
69836;BME280;57132;51.972;4.450;2023-03-13T14:07:18;99315.19;;;13.44;83.95
69836;BME280;57132;51.972;4.450;2023-03-13T14:09:57;99248.69;;;13.40;85.19
69836;BME280;57132;51.972;4.450;2023-03-13T14:12:35;99232.09;;;13.36;85.21
69836;BME280;57132;51.972;4.450;2023-03-13T14:18:08;99244.47;;;13.37;82.63
69836;BME280;57132;51.972;4.450;2023-03-13T14:20:38;99230.06;;;13.38;84.39
69836;BME280;57132;51.972;4.450;2023-03-13T14:23:08;99212.31;;;13.37;85.41
69836;BME280;57132;51.972;4.450;2023-03-13T14:25:50;99260.56;;;13.37;82.99
69836;BME280;57132;51.972;4.450;2023-03-13T14:28:25;99213.00;;;13.31;83.87
69836;BME280;57132;51.972;4.450;2023-03-13T14:30:56;99238.47;;;13.35;81.57
69836;BME280;57132;51.972;4.450;2023-03-13T14:33:23;99308.78;;;13.29;81.84
69836;BME280;57132;51.972;4.450;2023-03-13T14:35:51;99242.47;;;13.23;82.09
69836;BME280;57132;51.972;4.450;2023-03-13T14:38:24;99222.03;;;13.30;82.44
69836;BME280;57132;51.972;4.450;2023-03-13T14:40:52;99204.66;;;13.42;82.60
69836;BME280;57132;51.972;4.450;2023-03-13T14:43:24;99224.88;;;13.37;83.48